Joel, Wisconsin
Current Conditions -  °F | °C
As of 8:35 PM on Wednesday 22 Oct 2014 (Local Time) from KOEO Reporting Station
Scattered Clouds Scattered Clouds  
Wind Chill: 55°   Ceiling: Unl
Heat Index: 55°   Visibility: 10mi
Dew Point: 38°   Wind: 12mph
Humidity: 54%   Direction: 140°SE
Pressure: 30.07"   Gusts: 20mph
Location:  45.3559°N, 92.3527°W
Report Text: KOEO 230135Z AUTO 14010G17KT 10SM SCT070 13/04 A3007 RMK AO2 T01260035
Loading
Personal Weather Stations






























Interactive Weather Map New forecast layout! Learn more

10-Day Weather Forecast

Advertisements
Track Severe Weather on mobile